sensor_id;sensor_type;location;lat;lon;timestamp;temperature;humidity
29363;DHT22;16349;53.672;10.014;2022-12-07T00:01:04;3.50;99.90
29363;DHT22;16349;53.672;10.014;2022-12-07T00:03:32;3.50;99.90
29363;DHT22;16349;53.672;10.014;2022-12-07T00:06:00;3.50;99.90
29363;DHT22;16349;53.672;10.014;2022-12-07T00:08:27;3.60;99.90
29363;DHT22;16349;53.672;10.014;2022-12-07T00:10:54;3.60;99.90
29363;DHT22;16349;53.672;10.014;2022-12-07T00:13:22;3.60;99.90
29363;DHT22;16349;53.672;10.014;2022-12-07T00:15:49;3.60;99.90
29363;DHT22;16349;53.672;10.014;2022-12-07T00:18:16;3.60;99.90
29363;DHT22;16349;53.672;10.014;2022-12-07T00:20:43;3.60;99.90
29363;DHT22;16349;53.672;10.014;2022-12-07T00:23:09;3.60;99.90
29363;DHT22;16349;53.672;10.014;2022-12-07T00:25:36;3.60;99.90
29363;DHT22;16349;53.672;10.014;2022-12-07T00:28:03;3.60;99.90
29363;DHT22;16349;53.672;10.014;2022-12-07T00:30:31;3.60;99.90
29363;DHT22;16349;53.672;10.014;2022-12-07T00:32:58;3.60;99.90
29363;DHT22;16349;53.672;10.014;2022-12-07T00:35:25;3.60;99.90
29363;DHT22;16349;53.672;10.014;2022-12-07T00:37:52;3.60;99.90
29363;DHT22;16349;53.672;10.014;2022-12-07T00:40:19;3.60;99.90
29363;DHT22;16349;53.672;10.014;2022-12-07T00:42:46;3.60;99.90
29363;DHT22;16349;53.672;10.014;2022-12-07T00:45:13;3.60;99.90
29363;DHT22;16349;53.672;10.014;2022-12-07T00:47:41;3.60;99.90
29363;DHT22;16349;53.672;10.014;2022-12-07T00:50:08;3.60;99.90
29363;DHT22;16349;53.672;10.014;2022-12-07T00:52:35;3.60;99.90
29363;DHT22;16349;53.672;10.014;2022-12-07T00:55:01;3.60;99.90
29363;DHT22;16349;53.672;10.014;2022-12-07T00:57:30;3.60;99.90
29363;DHT22;16349;53.672;10.014;2022-12-07T00:59:57;3.60;99.90
29363;DHT22;16349;53.672;10.014;2022-12-07T01:02:25;3.60;99.90
29363;DHT22;16349;53.672;10.014;2022-12-07T01:04:53;3.60;99.90
29363;DHT22;16349;53.672;10.014;2022-12-07T01:07:20;3.60;99.90
29363;DHT22;16349;53.672;10.014;2022-12-07T01:09:47;3.60;99.90
29363;DHT22;16349;53.672;10.014;2022-12-07T01:12:14;3.60;99.90
29363;DHT22;16349;53.672;10.014;2022-12-07T01:14:41;3.60;99.90
29363;DHT22;16349;53.672;10.014;2022-12-07T01:17:08;3.60;99.90
29363;DHT22;16349;53.672;10.014;2022-12-07T01:19:34;3.60;99.90
29363;DHT22;16349;53.672;10.014;2022-12-07T01:22:02;3.60;99.90
29363;DHT22;16349;53.672;10.014;2022-12-07T01:24:29;3.60;99.90
29363;DHT22;16349;53.672;10.014;2022-12-07T01:26:56;3.60;99.90
29363;DHT22;16349;53.672;10.014;2022-12-07T01:29:23;3.60;99.90
29363;DHT22;16349;53.672;10.014;2022-12-07T01:31:50;3.60;99.90
29363;DHT22;16349;53.672;10.014;2022-12-07T01:34:17;3.60;99.90
29363;DHT22;16349;53.672;10.014;2022-12-07T01:36:44;3.60;99.90
29363;DHT22;16349;53.672;10.014;2022-12-07T01:39:12;3.60;99.90
29363;DHT22;16349;53.672;10.014;2022-12-07T01:41:41;3.60;99.90
29363;DHT22;16349;53.672;10.014;2022-12-07T01:44:17;3.60;99.90
29363;DHT22;16349;53.672;10.014;2022-12-07T01:46:46;3.60;99.90
29363;DHT22;16349;53.672;10.014;2022-12-07T01:49:17;3.50;99.90
29363;DHT22;16349;53.672;10.014;2022-12-07T01:51:46;3.50;99.90
29363;DHT22;16349;53.672;10.014;2022-12-07T01:54:15;3.50;99.90
29363;DHT22;16349;53.672;10.014;2022-12-07T01:56:48;3.50;99.90
29363;DHT22;16349;53.672;10.014;2022-12-07T01:59:16;3.50;99.90
29363;DHT22;16349;53.672;10.014;2022-12-07T02:01:44;3.40;99.90
29363;DHT22;16349;53.672;10.014;2022-12-07T02:04:12;3.40;99.90
29363;DHT22;16349;53.672;10.014;2022-12-07T02:06:39;3.40;99.90
29363;DHT22;16349;53.672;10.014;2022-12-07T02:09:07;3.40;99.90
29363;DHT22;16349;53.672;10.014;2022-12-07T02:11:36;3.30;99.90
29363;DHT22;16349;53.672;10.014;2022-12-07T02:14:03;3.30;99.90
29363;DHT22;16349;53.672;10.014;2022-12-07T02:16:36;3.30;99.90
29363;DHT22;16349;53.672;10.014;2022-12-07T02:19:24;3.30;99.90
29363;DHT22;16349;53.672;10.014;2022-12-07T02:22:05;3.30;99.90
29363;DHT22;16349;53.672;10.014;2022-12-07T02:24:48;3.30;99.90
29363;DHT22;16349;53.672;10.014;2022-12-07T02:27:38;3.30;99.90
29363;DHT22;16349;53.672;10.014;2022-12-07T02:30:09;3.30;99.90
29363;DHT22;16349;53.672;10.014;2022-12-07T02:32:44;3.30;99.90
29363;DHT22;16349;53.672;10.014;2022-12-07T02:35:17;3.20;99.90
29363;DHT22;16349;53.672;10.014;2022-12-07T02:37:55;3.20;99.90
29363;DHT22;16349;53.672;10.014;2022-12-07T02:40:29;3.20;99.90
29363;DHT22;16349;53.672;10.014;2022-12-07T02:43:02;3.20;99.90
29363;DHT22;16349;53.672;10.014;2022-12-07T02:45:34;3.10;99.90
29363;DHT22;16349;53.672;10.014;2022-12-07T02:48:03;3.10;99.90
29363;DHT22;16349;53.672;10.014;2022-12-07T02:50:31;3.10;99.90
29363;DHT22;16349;53.672;10.014;2022-12-07T02:52:58;3.10;99.90
29363;DHT22;16349;53.672;10.014;2022-12-07T02:55:28;3.10;99.90
29363;DHT22;16349;53.672;10.014;2022-12-07T02:58:08;3.00;99.90
29363;DHT22;16349;53.672;10.014;2022-12-07T03:00:47;3.00;99.90
29363;DHT22;16349;53.672;10.014;2022-12-07T03:03:17;2.90;99.90
29363;DHT22;16349;53.672;10.014;2022-12-07T03:06:04;2.90;99.90
29363;DHT22;16349;53.672;10.014;2022-12-07T03:08:41;2.90;99.90
29363;DHT22;16349;53.672;10.014;2022-12-07T03:11:11;2.90;99.90
29363;DHT22;16349;53.672;10.014;2022-12-07T03:13:42;2.80;99.90
29363;DHT22;16349;53.672;10.014;2022-12-07T03:16:15;2.80;99.90
29363;DHT22;16349;53.672;10.014;2022-12-07T03:18:46;2.80;99.90
29363;DHT22;16349;53.672;10.014;2022-12-07T03:21:16;2.80;99.90
29363;DHT22;16349;53.672;10.014;2022-12-07T03:23:46;2.70;99.90
29363;DHT22;16349;53.672;10.014;2022-12-07T03:26:17;2.70;99.90
29363;DHT22;16349;53.672;10.014;2022-12-07T03:28:49;2.70;99.90
29363;DHT22;16349;53.672;10.014;2022-12-07T03:31:22;2.70;99.90
29363;DHT22;16349;53.672;10.014;2022-12-07T03:33:56;2.60;99.90
29363;DHT22;16349;53.672;10.014;2022-12-07T03:36:32;2.60;99.90
29363;DHT22;16349;53.672;10.014;2022-12-07T03:39:25;2.60;99.90
29363;DHT22;16349;53.672;10.014;2022-12-07T03:41:55;2.60;99.90
29363;DHT22;16349;53.672;10.014;2022-12-07T03:44:23;2.60;99.90
29363;DHT22;16349;53.672;10.014;2022-12-07T03:46:59;2.60;99.90
29363;DHT22;16349;53.672;10.014;2022-12-07T03:49:32;2.50;99.90
29363;DHT22;16349;53.672;10.014;2022-12-07T03:52:11;2.50;99.90
29363;DHT22;16349;53.672;10.014;2022-12-07T03:54:41;2.50;99.90
29363;DHT22;16349;53.672;10.014;2022-12-07T03:57:10;2.50;99.90
29363;DHT22;16349;53.672;10.014;2022-12-07T03:59:39;2.50;99.90
29363;DHT22;16349;53.672;10.014;2022-12-07T04:02:11;2.50;99.90
29363;DHT22;16349;53.672;10.014;2022-12-07T04:04:38;2.50;99.90
29363;DHT22;16349;53.672;10.014;2022-12-07T04:07:05;2.40;99.90
29363;DHT22;16349;53.672;10.014;2022-12-07T04:09:32;2.40;99.90
29363;DHT22;16349;53.672;10.014;2022-12-07T04:11:59;2.40;99.90
29363;DHT22;16349;53.672;10.014;2022-12-07T04:14:29;2.40;99.90
29363;DHT22;16349;53.672;10.014;2022-12-07T04:16:58;2.40;99.90
29363;DHT22;16349;53.672;10.014;2022-12-07T04:19:28;2.40;99.90
29363;DHT22;16349;53.672;10.014;2022-12-07T04:21:56;2.40;99.90
29363;DHT22;16349;53.672;10.014;2022-12-07T04:24:23;2.30;99.90
29363;DHT22;16349;53.672;10.014;2022-12-07T04:26:51;2.30;99.90
29363;DHT22;16349;53.672;10.014;2022-12-07T04:29:19;2.30;99.90
29363;DHT22;16349;53.672;10.014;2022-12-07T04:31:47;2.30;99.90
29363;DHT22;16349;53.672;10.014;2022-12-07T04:34:14;2.30;99.90
29363;DHT22;16349;53.672;10.014;2022-12-07T04:36:43;2.30;99.90
29363;DHT22;16349;53.672;10.014;2022-12-07T04:39:18;2.30;99.90
29363;DHT22;16349;53.672;10.014;2022-12-07T04:41:45;2.20;99.90
29363;DHT22;16349;53.672;10.014;2022-12-07T04:44:14;2.20;99.90
29363;DHT22;16349;53.672;10.014;2022-12-07T04:46:41;2.20;99.90
29363;DHT22;16349;53.672;10.014;2022-12-07T04:49:09;2.20;99.90
29363;DHT22;16349;53.672;10.014;2022-12-07T04:51:36;2.20;99.90
29363;DHT22;16349;53.672;10.014;2022-12-07T04:54:04;2.20;99.90
29363;DHT22;16349;53.672;10.014;2022-12-07T04:56:32;2.20;99.90
29363;DHT22;16349;53.672;10.014;2022-12-07T04:59:01;2.20;99.90
29363;DHT22;16349;53.672;10.014;2022-12-07T05:01:28;2.10;99.90
29363;DHT22;16349;53.672;10.014;2022-12-07T05:03:55;2.10;99.90
29363;DHT22;16349;53.672;10.014;2022-12-07T05:06:21;2.10;99.90
29363;DHT22;16349;53.672;10.014;2022-12-07T05:08:48;2.10;99.90
29363;DHT22;16349;53.672;10.014;2022-12-07T05:11:17;2.10;99.90
29363;DHT22;16349;53.672;10.014;2022-12-07T05:13:59;2.10;99.90
29363;DHT22;16349;53.672;10.014;2022-12-07T05:16:25;2.10;99.90
29363;DHT22;16349;53.672;10.014;2022-12-07T05:18:52;2.10;99.90
29363;DHT22;16349;53.672;10.014;2022-12-07T05:21:19;2.10;99.90
29363;DHT22;16349;53.672;10.014;2022-12-07T05:23:46;2.00;99.90
29363;DHT22;16349;53.672;10.014;2022-12-07T05:26:13;2.00;99.90
29363;DHT22;16349;53.672;10.014;2022-12-07T05:28:41;2.00;99.90
29363;DHT22;16349;53.672;10.014;2022-12-07T05:31:08;2.00;99.90
29363;DHT22;16349;53.672;10.014;2022-12-07T05:33:35;2.00;99.90
29363;DHT22;16349;53.672;10.014;2022-12-07T05:36:02;1.90;99.90
29363;DHT22;16349;53.672;10.014;2022-12-07T05:38:31;2.00;99.90
29363;DHT22;16349;53.672;10.014;2022-12-07T05:41:00;2.00;99.90
29363;DHT22;16349;53.672;10.014;2022-12-07T05:43:28;1.90;99.90
29363;DHT22;16349;53.672;10.014;2022-12-07T05:45:57;2.00;99.90
29363;DHT22;16349;53.672;10.014;2022-12-07T05:48:24;1.90;99.90
29363;DHT22;16349;53.672;10.014;2022-12-07T05:50:52;1.90;99.90
29363;DHT22;16349;53.672;10.014;2022-12-07T05:53:19;1.90;99.90
29363;DHT22;16349;53.672;10.014;2022-12-07T05:55:46;1.80;99.90
29363;DHT22;16349;53.672;10.014;2022-12-07T05:58:13;1.80;99.90
29363;DHT22;16349;53.672;10.014;2022-12-07T06:00:59;1.70;99.90
29363;DHT22;16349;53.672;10.014;2022-12-07T06:03:25;1.70;99.90
29363;DHT22;16349;53.672;10.014;2022-12-07T06:05:52;1.70;99.90
29363;DHT22;16349;53.672;10.014;2022-12-07T06:08:19;1.70;99.90
29363;DHT22;16349;53.672;10.014;2022-12-07T06:10:47;1.60;99.90
29363;DHT22;16349;53.672;10.014;2022-12-07T06:13:35;1.60;99.90
29363;DHT22;16349;53.672;10.014;2022-12-07T06:16:02;1.60;99.90
29363;DHT22;16349;53.672;10.014;2022-12-07T06:18:30;1.50;99.90
29363;DHT22;16349;53.672;10.014;2022-12-07T06:20:56;1.50;99.90
29363;DHT22;16349;53.672;10.014;2022-12-07T06:23:23;1.50;99.90
29363;DHT22;16349;53.672;10.014;2022-12-07T06:25:51;1.50;99.90
29363;DHT22;16349;53.672;10.014;2022-12-07T06:28:18;1.50;99.90
29363;DHT22;16349;53.672;10.014;2022-12-07T06:30:45;1.50;99.90
29363;DHT22;16349;53.672;10.014;2022-12-07T06:33:14;1.50;99.90
29363;DHT22;16349;53.672;10.014;2022-12-07T06:35:41;1.50;99.90
29363;DHT22;16349;53.672;10.014;2022-12-07T06:38:08;1.50;99.90
29363;DHT22;16349;53.672;10.014;2022-12-07T06:40:35;1.60;99.90
29363;DHT22;16349;53.672;10.014;2022-12-07T06:43:02;1.50;99.90
29363;DHT22;16349;53.672;10.014;2022-12-07T06:45:29;1.50;99.90
29363;DHT22;16349;53.672;10.014;2022-12-07T06:47:56;1.60;99.90
29363;DHT22;16349;53.672;10.014;2022-12-07T06:50:24;1.60;99.90
29363;DHT22;16349;53.672;10.014;2022-12-07T06:52:51;1.60;99.90
29363;DHT22;16349;53.672;10.014;2022-12-07T06:55:18;1.60;99.90
29363;DHT22;16349;53.672;10.014;2022-12-07T06:57:45;1.60;99.90
29363;DHT22;16349;53.672;10.014;2022-12-07T07:00:13;1.60;99.90
29363;DHT22;16349;53.672;10.014;2022-12-07T07:02:40;1.60;99.90
29363;DHT22;16349;53.672;10.014;2022-12-07T07:05:07;1.70;99.90
29363;DHT22;16349;53.672;10.014;2022-12-07T07:07:35;1.70;99.90
29363;DHT22;16349;53.672;10.014;2022-12-07T07:10:02;1.70;99.90
29363;DHT22;16349;53.672;10.014;2022-12-07T07:12:29;1.70;99.90
29363;DHT22;16349;53.672;10.014;2022-12-07T07:14:56;1.70;99.90
29363;DHT22;16349;53.672;10.014;2022-12-07T07:17:23;1.80;99.90
29363;DHT22;16349;53.672;10.014;2022-12-07T07:19:50;1.80;99.90
29363;DHT22;16349;53.672;10.014;2022-12-07T07:22:18;1.80;99.90
29363;DHT22;16349;53.672;10.014;2022-12-07T07:24:46;1.80;99.90
29363;DHT22;16349;53.672;10.014;2022-12-07T07:27:13;1.80;99.90
29363;DHT22;16349;53.672;10.014;2022-12-07T07:29:40;1.80;99.90
29363;DHT22;16349;53.672;10.014;2022-12-07T07:32:07;1.90;99.90
29363;DHT22;16349;53.672;10.014;2022-12-07T07:34:34;1.90;99.90
29363;DHT22;16349;53.672;10.014;2022-12-07T07:37:01;1.90;99.90
29363;DHT22;16349;53.672;10.014;2022-12-07T07:39:27;1.90;99.90
29363;DHT22;16349;53.672;10.014;2022-12-07T07:41:55;1.90;99.90
29363;DHT22;16349;53.672;10.014;2022-12-07T07:44:26;1.90;99.90
29363;DHT22;16349;53.672;10.014;2022-12-07T07:46:52;1.90;99.90
29363;DHT22;16349;53.672;10.014;2022-12-07T07:49:20;2.00;99.90
29363;DHT22;16349;53.672;10.014;2022-12-07T07:51:46;2.00;99.90
29363;DHT22;16349;53.672;10.014;2022-12-07T07:54:13;2.00;99.90
29363;DHT22;16349;53.672;10.014;2022-12-07T07:56:40;2.00;99.90
29363;DHT22;16349;53.672;10.014;2022-12-07T07:59:08;2.10;99.90
29363;DHT22;16349;53.672;10.014;2022-12-07T08:01:35;2.10;99.90
29363;DHT22;16349;53.672;10.014;2022-12-07T08:04:02;2.10;99.90
29363;DHT22;16349;53.672;10.014;2022-12-07T08:06:29;2.10;99.90
29363;DHT22;16349;53.672;10.014;2022-12-07T08:08:55;2.10;99.90
29363;DHT22;16349;53.672;10.014;2022-12-07T08:11:23;2.10;99.90
29363;DHT22;16349;53.672;10.014;2022-12-07T08:13:50;2.10;99.90
29363;DHT22;16349;53.672;10.014;2022-12-07T08:16:18;2.20;99.90
29363;DHT22;16349;53.672;10.014;2022-12-07T08:18:45;2.20;99.90
29363;DHT22;16349;53.672;10.014;2022-12-07T08:21:14;2.20;99.90
29363;DHT22;16349;53.672;10.014;2022-12-07T08:23:41;2.20;99.90
29363;DHT22;16349;53.672;10.014;2022-12-07T08:26:10;2.20;99.90
29363;DHT22;16349;53.672;10.014;2022-12-07T08:28:37;2.30;99.90
29363;DHT22;16349;53.672;10.014;2022-12-07T08:31:05;2.30;99.90
29363;DHT22;16349;53.672;10.014;2022-12-07T08:33:34;2.30;99.90
29363;DHT22;16349;53.672;10.014;2022-12-07T08:36:01;2.30;99.90
29363;DHT22;16349;53.672;10.014;2022-12-07T08:38:28;2.40;99.90
29363;DHT22;16349;53.672;10.014;2022-12-07T08:40:55;2.40;99.90
29363;DHT22;16349;53.672;10.014;2022-12-07T08:43:22;2.40;99.90
29363;DHT22;16349;53.672;10.014;2022-12-07T08:46:01;2.40;99.90
29363;DHT22;16349;53.672;10.014;2022-12-07T08:48:30;2.50;99.90
29363;DHT22;16349;53.672;10.014;2022-12-07T08:51:00;2.50;99.90
29363;DHT22;16349;53.672;10.014;2022-12-07T08:53:27;2.50;99.90
29363;DHT22;16349;53.672;10.014;2022-12-07T08:55:56;2.50;99.90
29363;DHT22;16349;53.672;10.014;2022-12-07T08:58:23;2.50;99.90
29363;DHT22;16349;53.672;10.014;2022-12-07T09:00:50;2.60;99.90
29363;DHT22;16349;53.672;10.014;2022-12-07T09:03:17;2.60;99.90
29363;DHT22;16349;53.672;10.014;2022-12-07T09:05:44;2.60;99.90
29363;DHT22;16349;53.672;10.014;2022-12-07T09:08:12;2.60;99.90
29363;DHT22;16349;53.672;10.014;2022-12-07T09:10:39;2.70;99.90
29363;DHT22;16349;53.672;10.014;2022-12-07T09:13:05;2.70;99.90
29363;DHT22;16349;53.672;10.014;2022-12-07T09:15:32;2.80;99.90
29363;DHT22;16349;53.672;10.014;2022-12-07T09:17:59;2.80;99.90
29363;DHT22;16349;53.672;10.014;2022-12-07T09:20:26;2.80;99.90
29363;DHT22;16349;53.672;10.014;2022-12-07T09:22:52;2.80;99.90
29363;DHT22;16349;53.672;10.014;2022-12-07T09:25:20;2.80;99.90
29363;DHT22;16349;53.672;10.014;2022-12-07T09:27:47;2.90;99.90
29363;DHT22;16349;53.672;10.014;2022-12-07T09:30:14;2.90;99.90
29363;DHT22;16349;53.672;10.014;2022-12-07T09:32:41;2.90;99.90
29363;DHT22;16349;53.672;10.014;2022-12-07T09:35:08;2.90;99.90
29363;DHT22;16349;53.672;10.014;2022-12-07T09:37:35;3.00;99.90
29363;DHT22;16349;53.672;10.014;2022-12-07T09:40:04;3.00;99.90
29363;DHT22;16349;53.672;10.014;2022-12-07T09:42:36;3.10;99.90
29363;DHT22;16349;53.672;10.014;2022-12-07T09:45:05;3.10;99.90
29363;DHT22;16349;53.672;10.014;2022-12-07T09:47:33;3.10;99.90
29363;DHT22;16349;53.672;10.014;2022-12-07T09:50:04;3.20;99.90
29363;DHT22;16349;53.672;10.014;2022-12-07T09:52:32;3.20;99.90
29363;DHT22;16349;53.672;10.014;2022-12-07T09:54:58;3.20;99.90
29363;DHT22;16349;53.672;10.014;2022-12-07T09:57:28;3.30;99.90
29363;DHT22;16349;53.672;10.014;2022-12-07T10:00:01;3.30;99.90
29363;DHT22;16349;53.672;10.014;2022-12-07T10:02:36;3.30;99.90
29363;DHT22;16349;53.672;10.014;2022-12-07T10:05:06;3.40;99.90
29363;DHT22;16349;53.672;10.014;2022-12-07T10:07:33;3.40;99.90
29363;DHT22;16349;53.672;10.014;2022-12-07T10:10:03;3.50;99.90
29363;DHT22;16349;53.672;10.014;2022-12-07T10:12:29;3.50;99.90
29363;DHT22;16349;53.672;10.014;2022-12-07T10:15:01;3.50;99.90
29363;DHT22;16349;53.672;10.014;2022-12-07T10:17:31;3.50;99.90
29363;DHT22;16349;53.672;10.014;2022-12-07T10:20:32;3.60;99.90
29363;DHT22;16349;53.672;10.014;2022-12-07T10:23:01;3.60;99.90
29363;DHT22;16349;53.672;10.014;2022-12-07T10:25:31;3.60;99.90
29363;DHT22;16349;53.672;10.014;2022-12-07T10:28:01;3.70;99.90
29363;DHT22;16349;53.672;10.014;2022-12-07T10:30:30;3.70;99.90
29363;DHT22;16349;53.672;10.014;2022-12-07T10:32:58;3.70;99.90
29363;DHT22;16349;53.672;10.014;2022-12-07T10:35:27;3.70;99.90
29363;DHT22;16349;53.672;10.014;2022-12-07T10:37:56;3.80;99.90
29363;DHT22;16349;53.672;10.014;2022-12-07T10:40:27;3.80;99.90
29363;DHT22;16349;53.672;10.014;2022-12-07T10:43:05;3.80;99.90
29363;DHT22;16349;53.672;10.014;2022-12-07T10:45:35;3.90;99.90
29363;DHT22;16349;53.672;10.014;2022-12-07T10:48:11;3.90;99.90
29363;DHT22;16349;53.672;10.014;2022-12-07T10:50:52;3.90;99.90
29363;DHT22;16349;53.672;10.014;2022-12-07T10:53:40;3.90;99.90
29363;DHT22;16349;53.672;10.014;2022-12-07T10:56:40;4.00;99.90
29363;DHT22;16349;53.672;10.014;2022-12-07T10:59:26;4.00;99.90
29363;DHT22;16349;53.672;10.014;2022-12-07T11:02:10;4.00;99.90
29363;DHT22;16349;53.672;10.014;2022-12-07T11:04:46;4.10;99.90
29363;DHT22;16349;53.672;10.014;2022-12-07T11:07:26;4.10;99.90
29363;DHT22;16349;53.672;10.014;2022-12-07T11:10:02;4.10;99.90
29363;DHT22;16349;53.672;10.014;2022-12-07T11:12:47;4.20;99.90
29363;DHT22;16349;53.672;10.014;2022-12-07T11:15:20;4.20;99.90
29363;DHT22;16349;53.672;10.014;2022-12-07T11:17:56;4.20;99.90
29363;DHT22;16349;53.672;10.014;2022-12-07T11:20:34;4.20;99.90
29363;DHT22;16349;53.672;10.014;2022-12-07T11:23:11;4.20;99.90
29363;DHT22;16349;53.672;10.014;2022-12-07T11:25:47;4.30;99.90
29363;DHT22;16349;53.672;10.014;2022-12-07T11:28:28;4.30;99.90
29363;DHT22;16349;53.672;10.014;2022-12-07T11:31:05;4.30;99.90
29363;DHT22;16349;53.672;10.014;2022-12-07T11:33:42;4.30;99.90
29363;DHT22;16349;53.672;10.014;2022-12-07T11:36:24;4.30;99.90
29363;DHT22;16349;53.672;10.014;2022-12-07T11:38:58;4.40;99.90
29363;DHT22;16349;53.672;10.014;2022-12-07T11:41:29;4.40;99.90
29363;DHT22;16349;53.672;10.014;2022-12-07T11:44:04;4.40;99.90
29363;DHT22;16349;53.672;10.014;2022-12-07T11:46:43;4.40;99.90
29363;DHT22;16349;53.672;10.014;2022-12-07T11:49:16;4.50;99.90
29363;DHT22;16349;53.672;10.014;2022-12-07T11:51:48;4.50;99.90
29363;DHT22;16349;53.672;10.014;2022-12-07T11:54:21;4.50;99.90
29363;DHT22;16349;53.672;10.014;2022-12-07T11:56:51;4.60;99.90
29363;DHT22;16349;53.672;10.014;2022-12-07T11:59:23;4.60;99.90
29363;DHT22;16349;53.672;10.014;2022-12-07T12:01:57;4.60;99.90
29363;DHT22;16349;53.672;10.014;2022-12-07T12:04:45;4.60;99.90
29363;DHT22;16349;53.672;10.014;2022-12-07T12:07:16;4.70;99.90
29363;DHT22;16349;53.672;10.014;2022-12-07T12:09:49;4.70;99.90
29363;DHT22;16349;53.672;10.014;2022-12-07T12:12:37;4.70;99.90
29363;DHT22;16349;53.672;10.014;2022-12-07T12:15:19;4.70;99.90
29363;DHT22;16349;53.672;10.014;2022-12-07T12:18:09;4.70;99.90
29363;DHT22;16349;53.672;10.014;2022-12-07T12:20:42;4.70;99.90
29363;DHT22;16349;53.672;10.014;2022-12-07T12:23:12;4.70;99.90
29363;DHT22;16349;53.672;10.014;2022-12-07T12:25:45;4.70;99.90
29363;DHT22;16349;53.672;10.014;2022-12-07T12:28:22;4.70;99.90
29363;DHT22;16349;53.672;10.014;2022-12-07T12:31:09;4.70;99.90
29363;DHT22;16349;53.672;10.014;2022-12-07T12:33:38;4.70;99.90
29363;DHT22;16349;53.672;10.014;2022-12-07T12:36:21;4.80;99.90
29363;DHT22;16349;53.672;10.014;2022-12-07T12:38:52;4.80;99.90
29363;DHT22;16349;53.672;10.014;2022-12-07T12:41:54;4.80;99.90
29363;DHT22;16349;53.672;10.014;2022-12-07T12:50:28;4.80;99.90
29363;DHT22;16349;53.672;10.014;2022-12-07T12:53:19;4.80;99.90
29363;DHT22;16349;53.672;10.014;2022-12-07T12:56:25;4.80;99.90
29363;DHT22;16349;53.672;10.014;2022-12-07T12:59:21;4.80;99.90
29363;DHT22;16349;53.672;10.014;2022-12-07T13:01:49;4.80;99.90
29363;DHT22;16349;53.672;10.014;2022-12-07T13:04:38;4.80;99.90
29363;DHT22;16349;53.672;10.014;2022-12-07T13:07:13;4.80;99.90
29363;DHT22;16349;53.672;10.014;2022-12-07T13:10:02;4.80;99.90
29363;DHT22;16349;53.672;10.014;2022-12-07T13:12:29;4.80;99.90
29363;DHT22;16349;53.672;10.014;2022-12-07T13:14:58;4.70;99.90
29363;DHT22;16349;53.672;10.014;2022-12-07T13:18:00;4.70;99.90
29363;DHT22;16349;53.672;10.014;2022-12-07T13:20:51;4.70;99.90
29363;DHT22;16349;53.672;10.014;2022-12-07T13:23:30;4.70;99.90
29363;DHT22;16349;53.672;10.014;2022-12-07T13:26:15;4.70;99.90
29363;DHT22;16349;53.672;10.014;2022-12-07T13:28:44;4.70;99.90
29363;DHT22;16349;53.672;10.014;2022-12-07T13:31:23;4.70;99.90
29363;DHT22;16349;53.672;10.014;2022-12-07T13:33:52;4.70;99.90
29363;DHT22;16349;53.672;10.014;2022-12-07T13:36:23;4.80;99.90
29363;DHT22;16349;53.672;10.014;2022-12-07T13:38:54;4.70;99.90
29363;DHT22;16349;53.672;10.014;2022-12-07T13:41:24;4.70;99.90
29363;DHT22;16349;53.672;10.014;2022-12-07T13:44:00;4.70;99.90
29363;DHT22;16349;53.672;10.014;2022-12-07T13:46:41;4.70;99.90
29363;DHT22;16349;53.672;10.014;2022-12-07T13:49:18;4.70;99.90
29363;DHT22;16349;53.672;10.014;2022-12-07T13:51:46;4.70;99.90
29363;DHT22;16349;53.672;10.014;2022-12-07T13:54:14;4.60;99.90
29363;DHT22;16349;53.672;10.014;2022-12-07T13:56:42;4.60;99.90
29363;DHT22;16349;53.672;10.014;2022-12-07T13:59:18;4.50;99.90
29363;DHT22;16349;53.672;10.014;2022-12-07T14:01:46;4.50;99.90
29363;DHT22;16349;53.672;10.014;2022-12-07T14:04:19;4.40;99.90
29363;DHT22;16349;53.672;10.014;2022-12-07T14:06:54;4.40;99.90
29363;DHT22;16349;53.672;10.014;2022-12-07T14:09:23;4.40;99.90
29363;DHT22;16349;53.672;10.014;2022-12-07T14:11:53;4.30;99.90
29363;DHT22;16349;53.672;10.014;2022-12-07T14:14:22;4.30;99.90
29363;DHT22;16349;53.672;10.014;2022-12-07T14:16:58;4.20;99.90
29363;DHT22;16349;53.672;10.014;2022-12-07T14:19:42;4.20;99.90
29363;DHT22;16349;53.672;10.014;2022-12-07T14:22:19;4.20;99.90
29363;DHT22;16349;53.672;10.014;2022-12-07T14:24:46;4.20;99.90
29363;DHT22;16349;53.672;10.014;2022-12-07T14:27:19;4.10;99.90
29363;DHT22;16349;53.672;10.014;2022-12-07T14:29:47;4.10;99.90
29363;DHT22;16349;53.672;10.014;2022-12-07T14:32:20;4.00;99.90
29363;DHT22;16349;53.672;10.014;2022-12-07T14:34:54;4.00;99.90
29363;DHT22;16349;53.672;10.014;2022-12-07T14:37:21;4.00;99.90
29363;DHT22;16349;53.672;10.014;2022-12-07T14:39:47;3.90;99.90
29363;DHT22;16349;53.672;10.014;2022-12-07T14:42:14;3.90;99.90
29363;DHT22;16349;53.672;10.014;2022-12-07T14:44:43;3.90;99.90
29363;DHT22;16349;53.672;10.014;2022-12-07T14:47:10;3.80;99.90
29363;DHT22;16349;53.672;10.014;2022-12-07T14:49:38;3.80;99.90
29363;DHT22;16349;53.672;10.014;2022-12-07T14:52:05;3.70;99.90
29363;DHT22;16349;53.672;10.014;2022-12-07T14:54:33;3.70;99.90
29363;DHT22;16349;53.672;10.014;2022-12-07T14:56:59;3.60;99.90
29363;DHT22;16349;53.672;10.014;2022-12-07T14:59:26;3.60;99.90
29363;DHT22;16349;53.672;10.014;2022-12-07T15:01:54;3.50;99.90
29363;DHT22;16349;53.672;10.014;2022-12-07T15:04:21;3.50;99.90
29363;DHT22;16349;53.672;10.014;2022-12-07T15:06:56;3.50;99.90
29363;DHT22;16349;53.672;10.014;2022-12-07T15:09:23;3.40;99.90
29363;DHT22;16349;53.672;10.014;2022-12-07T15:11:50;3.40;99.90
29363;DHT22;16349;53.672;10.014;2022-12-07T15:14:17;3.30;99.90
29363;DHT22;16349;53.672;10.014;2022-12-07T15:16:44;3.30;99.90
29363;DHT22;16349;53.672;10.014;2022-12-07T15:19:14;3.30;99.90
29363;DHT22;16349;53.672;10.014;2022-12-07T15:21:42;3.30;99.90
29363;DHT22;16349;53.672;10.014;2022-12-07T15:24:10;3.20;99.90
29363;DHT22;16349;53.672;10.014;2022-12-07T15:26:38;3.20;99.90
29363;DHT22;16349;53.672;10.014;2022-12-07T15:29:06;3.20;99.90
29363;DHT22;16349;53.672;10.014;2022-12-07T15:31:34;3.10;99.90
29363;DHT22;16349;53.672;10.014;2022-12-07T15:34:00;3.10;99.90
29363;DHT22;16349;53.672;10.014;2022-12-07T15:36:31;3.00;99.90
29363;DHT22;16349;53.672;10.014;2022-12-07T15:38:58;3.00;99.90
29363;DHT22;16349;53.672;10.014;2022-12-07T15:41:25;3.00;99.90
29363;DHT22;16349;53.672;10.014;2022-12-07T15:43:53;3.00;99.90
29363;DHT22;16349;53.672;10.014;2022-12-07T15:46:39;2.90;99.90
29363;DHT22;16349;53.672;10.014;2022-12-07T15:49:11;2.90;99.90
29363;DHT22;16349;53.672;10.014;2022-12-07T15:51:40;2.90;99.90
29363;DHT22;16349;53.672;10.014;2022-12-07T15:54:10;2.80;99.90
29363;DHT22;16349;53.672;10.014;2022-12-07T15:56:38;2.80;99.90
29363;DHT22;16349;53.672;10.014;2022-12-07T15:59:05;2.70;99.90